Saint Petersburg, FL (33701)

7:54 PM EST on December 08, 2016 (GMT -0500)
Pinellas St. Petersburg Municipal Bldg. WeatherSTEM | | Change Station

Elev 0 ft 27.77 °N, 82.64 °W | Updated 1 minute ago

Partly Cloudy
Partly Cloudy
62.1 °F
Feels Like 62.1 °F
N
4.0
Wind Variable Wind from East

Today
High -- | Low -- °F
--% Chance of Precip.
Yesterday
High -- | Low -- °F
Precip. -- in
Pressure 30.18 in
Visibility 10.0 miles
Clouds Scattered Clouds 11000 ft
Mostly Cloudy 14000 ft
Dew Point 56 °F
Humidity 81%
Rainfall 0.00 in
Snow Depth Not available.
7:09 AM 5:35 PM
Waxing Gibbous, 68% visible
METAR KMCF 082358Z AUTO 01004KT 10SM SCT110 BKN140 17/14 A3017 RMK AO2 SLP220 60000 T01650144 10205 20165 52017 $
Pressure 30.18 in
Visibility 10.0 miles
Clouds Scattered Clouds 11000 ft
Mostly Cloudy 14000 ft
Dew Point 56 °F
Humidity 81%
Rainfall 0.00 in
Snow Depth Not available.
7:09 AM 5:35 PM
Waxing Gibbous, 68% visible
METAR KMCF 082358Z AUTO 01004KT 10SM SCT110 BKN140 17/14 A3017 RMK AO2 SLP220 60000 T01650144 10205 20165 52017 $

10-Day Weather Forecast

Almanac

Astronomy

Dec. 08, 2016 Rise Set
Actual Time
Civil Twilight
Nautical Twilight
Astronomical Twilight
Moon
Length of Visible Light
Length of Day
Tomorrow will be .
, % of the Moon is Illuminated

Today's Extremes

State Highs State Lows

Community

WunderPhotos

Upload Photos

1,956,277 photos uploaded!

WunderBlog® & News

Nearby

Air Quality

  Air Quality AQ Index Pollutant
Not available.

Snow Depth

Station Depth Elevation

Earthquake Activity

City Distance Mag. Time & Date
Minimum magnitude displayed is 2.5.

Coastal Water Temperatures

Place Temperature

Stations

Nearby Weather Stations

Station Location Temp. Windchill Dew Point Humidity Wind Precip. Elev Updated Type
                   

Watches & Warnings

There are currently no watches in effect.